Time;durP1;ratioP1;P1;durP2;ratioP2;P2;SDS_P1;SDS_P2;PMS_P1;PMS_P2;Temp;Humidity;BMP_temperature;BMP_pressure;BME280_temperature;BME280_humidity;BME280_pressure;Samples;Min_cycle;Max_cycle;Signal;HPM_P1;HPM_P2
2023/05/07 00:01:45;;;;;;;6.15;3.75;;;;;;;;;;13009191;19;20007;-67
2023/05/07 00:06:03;;;;;;;8.48;4.25;;;;;;;;;;13007767;19;19995;-68
2023/05/07 00:10:21;;;;;;;5.90;4.00;;;;;;;;;;13008912;19;20007;-67
2023/05/07 00:14:39;;;;;;;6.78;4.15;;;;;;;;;;13007383;19;20021;-67
2023/05/07 00:18:57;;;;;;;6.45;3.90;;;;;;;;;;13007596;19;20401;-67
2023/05/07 00:23:15;;;;;;;8.50;4.22;;;;;;;;;;13005742;19;20017;-68
2023/05/07 00:27:32;;;;;;;6.95;3.90;;;;;;;;;;13006886;19;20005;-68
2023/05/07 00:31:50;;;;;;;6.25;3.75;;;;;;;;;;13006921;19;19995;-67
2023/05/07 00:36:08;;;;;;;6.40;4.03;;;;;;;;;;13005052;19;20006;-68
2023/05/07 00:40:28;;;;;;;4.75;3.28;;;;;;;;;;13006366;19;20010;-66
2023/05/07 00:44:46;;;;;;;4.32;2.92;;;;;;;;;;13005751;19;20007;-67
2023/05/07 00:49:04;;;;;;;5.72;3.88;;;;;;;;;;13004363;19;20017;-67
2023/05/07 00:53:22;;;;;;;5.30;3.25;;;;;;;;;;13003809;19;20370;-66
2023/05/07 00:57:41;;;;;;;4.10;2.58;;;;;;;;;;13004392;19;20002;-66
2023/05/07 01:01:59;;;;;;;4.25;2.17;;;;;;;;;;13005378;19;20010;-66
2023/05/07 01:06:18;;;;;;;3.42;2.33;;;;;;;;;;13006318;19;20014;-66
2023/05/07 01:10:36;;;;;;;4.25;1.92;;;;;;;;;;13004690;19;20009;-66
2023/05/07 01:14:54;;;;;;;2.63;1.90;;;;;;;;;;13004525;19;20013;-66
2023/05/07 01:19:14;;;;;;;2.67;1.63;;;;;;;;;;13003371;19;20030;-66
2023/05/07 01:23:33;;;;;;;2.42;1.75;;;;;;;;;;13002735;19;20022;-66
2023/05/07 01:27:51;;;;;;;3.80;1.95;;;;;;;;;;13004049;19;20025;-66
2023/05/07 01:32:09;;;;;;;1.40;1.17;;;;;;;;;;13003208;19;20362;-66
2023/05/07 01:36:30;;;;;;;2.03;1.48;;;;;;;;;;13001804;19;20002;-66
2023/05/07 01:40:47;;;;;;;10.13;5.65;;;;;;;;;;13001821;19;20492;-66
2023/05/07 01:45:06;;;;;;;2.40;1.63;;;;;;;;;;13000644;19;20341;-66
2023/05/07 01:49:24;;;;;;;3.72;2.85;;;;;;;;;;13000999;19;20025;-66
2023/05/07 01:53:43;;;;;;;7.82;3.33;;;;;;;;;;13002677;19;20019;-66
2023/05/07 01:58:01;;;;;;;20.42;7.60;;;;;;;;;;13002273;19;20003;-67
2023/05/07 02:02:19;;;;;;;41.33;12.35;;;;;;;;;;12999546;19;20016;-66
2023/05/07 02:06:37;;;;;;;32.55;7.70;;;;;;;;;;13001921;19;20003;-66
2023/05/07 02:10:54;;;;;;;16.52;4.35;;;;;;;;;;13002345;19;20007;-66
2023/05/07 02:15:12;;;;;;;26.77;7.15;;;;;;;;;;13001221;19;20006;-66
2023/05/07 02:19:29;;;;;;;62.28;11.82;;;;;;;;;;13001053;19;20014;-66
2023/05/07 02:23:47;;;;;;;13.48;3.25;;;;;;;;;;13001162;19;20019;-66
2023/05/07 02:28:05;;;;;;;20.55;4.13;;;;;;;;;;13000994;19;20012;-66
2023/05/07 02:32:23;;;;;;;6.97;1.92;;;;;;;;;;13001039;19;20018;-66
2023/05/07 02:36:40;;;;;;;10.95;2.88;;;;;;;;;;12998199;19;20015;-66
2023/05/07 02:40:58;;;;;;;11.90;3.80;;;;;;;;;;13000357;19;20021;-66
2023/05/07 02:45:15;;;;;;;8.90;3.55;;;;;;;;;;12999948;19;20021;-66
2023/05/07 02:49:33;;;;;;;6.30;3.08;;;;;;;;;;13000578;19;20011;-66
2023/05/07 02:53:51;;;;;;;6.68;2.63;;;;;;;;;;12999516;19;20027;-67
2023/05/07 02:58:08;;;;;;;6.83;3.20;;;;;;;;;;12996911;19;20010;-67
2023/05/07 03:02:26;;;;;;;3.78;0.80;;;;;;;;;;12999308;19;20331;-67
2023/05/07 03:06:44;;;;;;;0.70;0.70;;;;;;;;;;12999324;19;20378;-67
2023/05/07 03:11:02;;;;;;;1.88;1.20;;;;;;;;;;13001653;19;20326;-67
2023/05/07 03:15:20;;;;;;;;;;;;;;;;;;13010681;19;20488;-67
2023/05/07 03:19:38;;;;;;;1.27;0.82;;;;;;;;;;13011598;19;19911;-67
2023/05/07 03:23:55;;;;;;;1.52;0.98;;;;;;;;;;13010886;19;20026;-67
2023/05/07 03:28:13;;;;;;;1.63;1.10;;;;;;;;;;13009930;19;20465;-67
2023/05/07 03:32:31;;;;;;;1.15;0.50;;;;;;;;;;13010627;19;19998;-66
2023/05/07 03:36:49;;;;;;;2.10;0.77;;;;;;;;;;13008870;19;19998;-66
2023/05/07 03:41:07;;;;;;;1.02;0.90;;;;;;;;;;13008728;19;20007;-66
2023/05/07 03:45:25;;;;;;;0.50;0.50;;;;;;;;;;13009902;19;20007;-67
2023/05/07 03:49:42;;;;;;;;;;;;;;;;;;13010067;19;20105;-67
2023/05/07 03:54:00;;;;;;;1.50;1.00;;;;;;;;;;13008280;19;19914;-67
2023/05/07 03:58:18;;;;;;;0.73;0.63;;;;;;;;;;13008702;19;20457;-66
2023/05/07 04:02:36;;;;;;;;;;;;;;;;;;13009243;19;20339;-66
2023/05/07 04:06:54;;;;;;;0.80;0.70;;;;;;;;;;13008657;19;19933;-66
2023/05/07 04:11:12;;;;;;;0.75;0.50;;;;;;;;;;13007574;19;19998;-66
2023/05/07 04:15:29;;;;;;;0.45;0.45;;;;;;;;;;13007357;19;20500;-66
2023/05/07 04:19:47;;;;;;;0.52;0.52;;;;;;;;;;13008061;19;20014;-66
2023/05/07 04:24:05;;;;;;;0.57;0.50;;;;;;;;;;13004424;19;20414;-67
2023/05/07 04:28:24;;;;;;;0.65;0.55;;;;;;;;;;13007075;19;20014;-67
2023/05/07 04:32:42;;;;;;;0.50;0.40;;;;;;;;;;13007443;19;20002;-67
2023/05/07 04:37:00;;;;;;;;;;;;;;;;;;13006660;19;20024;-67
2023/05/07 04:41:18;;;;;;;1.08;0.57;;;;;;;;;;13005593;19;19979;-67
2023/05/07 04:45:36;;;;;;;0.43;0.43;;;;;;;;;;13006082;19;20038;-67
2023/05/07 04:49:54;;;;;;;1.08;0.70;;;;;;;;;;13006133;19;20011;-67
2023/05/07 04:54:12;;;;;;;1.35;0.90;;;;;;;;;;13005078;19;20014;-67
2023/05/07 04:58:31;;;;;;;;;;;;;;;;;;13006012;19;20017;-67
2023/05/07 05:02:49;;;;;;;1.35;1.00;;;;;;;;;;13005328;19;19910;-67
2023/05/07 05:07:07;;;;;;;1.40;0.93;;;;;;;;;;13004678;19;20090;-67
2023/05/07 05:11:25;;;;;;;0.82;0.63;;;;;;;;;;13004893;19;20110;-67
2023/05/07 05:15:42;;;;;;;0.85;0.80;;;;;;;;;;13004110;19;20047;-67
2023/05/07 05:20:00;;;;;;;1.83;0.82;;;;;;;;;;13004588;19;20477;-67
2023/05/07 05:24:18;;;;;;;0.93;0.70;;;;;;;;;;13003372;19;20015;-67
2023/05/07 05:28:36;;;;;;;1.20;0.88;;;;;;;;;;13005082;19;20014;-67
2023/05/07 05:32:54;;;;;;;0.60;0.50;;;;;;;;;;13003056;19;20014;-67
2023/05/07 05:37:12;;;;;;;1.08;0.80;;;;;;;;;;13002873;19;20019;-68
2023/05/07 05:41:30;;;;;;;0.75;0.60;;;;;;;;;;13003147;19;20090;-68
2023/05/07 05:45:48;;;;;;;0.75;0.70;;;;;;;;;;13003337;19;20438;-68
2023/05/07 05:50:07;;;;;;;1.33;0.80;;;;;;;;;;13003078;19;20022;-68
2023/05/07 05:54:25;;;;;;;1.05;0.82;;;;;;;;;;13003316;19;20018;-67
2023/05/07 05:58:43;;;;;;;;;;;;;;;;;;13003321;19;20002;-67
2023/05/07 06:03:01;;;;;;;0.65;0.57;;;;;;;;;;13002274;19;19911;-67
2023/05/07 06:07:19;;;;;;;1.98;0.52;;;;;;;;;;13002450;19;20006;-67
2023/05/07 06:11:36;;;;;;;2.10;1.00;;;;;;;;;;13001635;19;20130;-68
2023/05/07 06:15:54;;;;;;;0.82;0.63;;;;;;;;;;13001400;19;20026;-67
2023/05/07 06:20:12;;;;;;;0.73;0.50;;;;;;;;;;13000581;19;20009;-67
2023/05/07 06:24:30;;;;;;;1.58;0.75;;;;;;;;;;13001256;19;20019;-67
2023/05/07 06:28:48;;;;;;;1.52;0.60;;;;;;;;;;13001519;19;20355;-67
2023/05/07 06:33:05;;;;;;;0.98;0.60;;;;;;;;;;13000191;19;20013;-67
2023/05/07 06:37:23;;;;;;;1.15;0.90;;;;;;;;;;13000301;19;20021;-67
2023/05/07 06:41:41;;;;;;;1.33;0.90;;;;;;;;;;13000154;19;20003;-67
2023/05/07 06:45:59;;;;;;;0.57;0.55;;;;;;;;;;13003155;19;20010;-67
2023/05/07 06:50:17;;;;;;;0.90;0.65;;;;;;;;;;13011950;19;20027;-67
2023/05/07 06:54:36;;;;;;;1.02;0.68;;;;;;;;;;13010839;19;20374;-67
2023/05/07 06:58:54;;;;;;;2.65;0.75;;;;;;;;;;13012548;19;20003;-67
2023/05/07 07:03:11;;;;;;;0.90;0.47;;;;;;;;;;13011587;19;20002;-67
2023/05/07 07:07:30;;;;;;;1.02;0.50;;;;;;;;;;13012124;19;20462;-67
2023/05/07 07:11:47;;;;;;;;;;;;;;;;;;13012377;19;20028;-67
2023/05/07 07:16:06;;;;;;;0.85;0.50;;;;;;;;;;13010048;19;19934;-67
2023/05/07 07:20:23;;;;;;;;;;;;;;;;;;13012158;19;20003;-67
2023/05/07 07:24:41;;;;;;;1.93;0.80;;;;;;;;;;13011645;19;20334;-67
2023/05/07 07:28:59;;;;;;;1.08;0.47;;;;;;;;;;13010985;19;20516;-67
2023/05/07 07:33:17;;;;;;;1.50;0.80;;;;;;;;;;13010621;19;20017;-67
2023/05/07 07:37:35;;;;;;;0.82;0.63;;;;;;;;;;13010123;19;19999;-67
2023/05/07 07:41:53;;;;;;;;;;;;;;;;;;13010996;19;20466;-67
2023/05/07 07:46:11;;;;;;;1.20;0.70;;;;;;;;;;13009992;19;19921;-67
2023/05/07 07:50:28;;;;;;;1.08;0.63;;;;;;;;;;13009400;19;20045;-67
2023/05/07 07:55:02;;;;;;;0.82;0.50;;;;;;;;;;13008249;19;20350;-67
2023/05/07 07:59:20;;;;;;;1.02;0.93;;;;;;;;;;13005398;19;20011;-67
2023/05/07 08:03:38;;;;;;;1.13;0.93;;;;;;;;;;13008759;19;20014;-67
2023/05/07 08:07:56;;;;;;;1.20;0.88;;;;;;;;;;13008860;19;20011;-68
2023/05/07 08:12:14;;;;;;;1.85;1.08;;;;;;;;;;13007822;19;20003;-68
2023/05/07 08:16:32;;;;;;;;;;;;;;;;;;13007976;19;20010;-68
2023/05/07 08:20:50;;;;;;;6.53;2.25;;;;;;;;;;13008581;19;20026;-68
2023/05/07 08:25:08;;;;;;;2.40;1.40;;;;;;;;;;13007182;19;20505;-68
2023/05/07 08:29:26;;;;;;;2.03;1.52;;;;;;;;;;13007738;19;20010;-68
2023/05/07 08:33:44;;;;;;;5.05;2.40;;;;;;;;;;13007597;19;20002;-68
2023/05/07 08:38:02;;;;;;;2.00;1.08;;;;;;;;;;13005195;19;20010;-68
2023/05/07 08:42:24;;;;;;;2.78;1.40;;;;;;;;;;13006451;19;20461;-68
2023/05/07 08:46:43;;;;;;;2.15;1.13;;;;;;;;;;13006776;19;20526;-67
2023/05/07 08:51:01;;;;;;;2.45;1.40;;;;;;;;;;13006147;19;20003;-67
2023/05/07 08:55:20;;;;;;;4.22;1.88;;;;;;;;;;13004922;19;20014;-67
2023/05/07 08:59:40;;;;;;;2.83;1.20;;;;;;;;;;13005898;19;20429;-67
2023/05/07 09:03:58;;;;;;;1.98;1.38;;;;;;;;;;13005135;19;20010;-68
2023/05/07 09:08:16;;;;;;;15.20;7.13;;;;;;;;;;13002141;19;20480;-68
2023/05/07 09:12:35;;;;;;;17.58;9.75;;;;;;;;;;13004836;19;20002;-67
2023/05/07 09:16:53;;;;;;;3.13;1.80;;;;;;;;;;13004299;19;20354;-67
2023/05/07 09:21:15;;;;;;;2.55;1.92;;;;;;;;;;13004235;19;20002;-67
2023/05/07 09:25:35;;;;;;;1.65;1.23;;;;;;;;;;13004437;19;20041;-67
2023/05/07 09:29:53;;;;;;;2.13;1.50;;;;;;;;;;13004042;19;20002;-67
2023/05/07 09:34:10;;;;;;;4.68;2.17;;;;;;;;;;13003275;19;20448;-68
2023/05/07 09:38:28;;;;;;;2.47;2.13;;;;;;;;;;13001293;19;20082;-68
2023/05/07 09:42:47;;;;;;;5.10;2.25;;;;;;;;;;13003698;19;20007;-68
2023/05/07 09:47:06;;;;;;;2.53;1.92;;;;;;;;;;13002834;19;20013;-67
2023/05/07 09:51:43;;;;;;;2.72;1.80;;;;;;;;;;13002659;19;20010;-67
2023/05/07 09:56:01;;;;;;;1.77;1.27;;;;;;;;;;13000863;19;20022;-67
2023/05/07 10:00:22;;;;;;;2.15;1.60;;;;;;;;;;13002937;19;20488;-67
2023/05/07 10:04:40;;;;;;;5.25;3.70;;;;;;;;;;13001904;19;20018;-67
2023/05/07 10:08:58;;;;;;;;;;;;;;;;;;13001197;19;20003;-67
2023/05/07 10:13:19;;;;;;;3.30;1.52;;;;;;;;;;13000385;19;19923;-67
2023/05/07 10:17:40;;;;;;;2.65;1.23;;;;;;;;;;13001656;19;20327;-67
2023/05/07 10:22:05;;;;;;;1.50;1.30;;;;;;;;;;12999326;19;20010;-67
2023/05/07 10:26:24;;;;;;;2.40;1.40;;;;;;;;;;12999529;19;20007;-67
2023/05/07 10:31:01;;;;;;;2.55;1.48;;;;;;;;;;12999490;19;20022;-66
2023/05/07 10:35:25;;;;;;;4.47;2.00;;;;;;;;;;13000165;19;20042;-67
2023/05/07 10:39:43;;;;;;;6.97;3.45;;;;;;;;;;12999105;19;20007;-67
2023/05/07 10:44:02;;;;;;;3.60;1.85;;;;;;;;;;12998492;19;20011;-67
2023/05/07 10:48:19;;;;;;;2.33;1.58;;;;;;;;;;12999948;19;20002;-67
2023/05/07 10:53:18;;;;;;;2.30;1.77;;;;;;;;;;13000266;19;20010;-66
2023/05/07 10:57:37;;;;;;;1.67;1.27;;;;;;;;;;13000526;19;20025;-67
2023/05/07 11:02:05;;;;;;;2.08;1.77;;;;;;;;;;12999699;19;20007;-67
2023/05/07 11:06:25;;;;;;;2.40;1.35;;;;;;;;;;12999233;19;20066;-67
2023/05/07 11:10:54;;;;;;;2.75;1.60;;;;;;;;;;12998533;19;20007;-67
2023/05/07 11:15:15;;;;;;;11.95;7.75;;;;;;;;;;12997576;19;20017;-67
2023/05/07 11:19:55;;;;;;;9.75;7.97;;;;;;;;;;12998953;19;20015;-67
2023/05/07 11:24:15;;;;;;;7.75;5.15;;;;;;;;;;12998057;19;20021;-67
2023/05/07 11:28:42;;;;;;;8.90;6.13;;;;;;;;;;12998127;19;20018;-67
2023/05/07 11:33:00;;;;;;;19.45;8.75;;;;;;;;;;13004482;19;20011;-68
2023/05/07 11:37:18;;;;;;;5.72;3.28;;;;;;;;;;13008237;19;20015;-66
2023/05/07 11:41:36;;;;;;;3.95;2.35;;;;;;;;;;13009875;19;20018;-68
2023/05/07 11:46:04;;;;;;;2.75;1.27;;;;;;;;;;13009611;19;20021;-67
2023/05/07 11:50:22;;;;;;;7.10;3.60;;;;;;;;;;13009526;19;20046;-67
2023/05/07 11:54:40;;;;;;;4.03;3.00;;;;;;;;;;13009795;19;20006;-67
2023/05/07 11:58:57;;;;;;;3.45;2.08;;;;;;;;;;13008449;19;20330;-68
2023/05/07 12:03:17;;;;;;;7.25;2.20;;;;;;;;;;13008424;19;20003;-68
2023/05/07 12:07:35;;;;;;;4.07;2.47;;;;;;;;;;13009025;19;20007;-68
2023/05/07 12:11:55;;;;;;;;;;;;;;;;;;13009089;19;20021;-68
2023/05/07 12:16:14;;;;;;;5.43;2.63;;;;;;;;;;12984469;19;19922;-67
2023/05/07 12:20:35;;;;;;;2.80;1.35;;;;;;;;;;13008377;19;19999;-67
2023/05/07 12:24:59;;;;;;;4.95;2.80;;;;;;;;;;13006592;19;20465;-68
2023/05/07 12:29:22;;;;;;;3.70;2.03;;;;;;;;;;13006882;19;20346;-67
2023/05/07 12:33:40;;;;;;;2.42;1.52;;;;;;;;;;13005911;19;20010;-67
2023/05/07 12:37:59;;;;;;;4.82;2.70;;;;;;;;;;13005434;19;20473;-67
2023/05/07 12:42:25;;;;;;;4.20;2.25;;;;;;;;;;13005759;19;20492;-67
2023/05/07 12:46:44;;;;;;;4.47;3.03;;;;;;;;;;13005241;19;20015;-67
2023/05/07 12:51:02;;;;;;;4.25;2.50;;;;;;;;;;13004630;19;20017;-67
2023/05/07 12:55:20;;;;;;;17.83;6.22;;;;;;;;;;13006073;19;20014;-66
2023/05/07 12:59:41;;;;;;;4.15;2.88;;;;;;;;;;13005781;19;19998;-67
2023/05/07 13:04:02;;;;;;;2.28;1.55;;;;;;;;;;13005677;19;20003;-67
2023/05/07 13:08:29;;;;;;;2.20;1.70;;;;;;;;;;13005172;19;20408;-68
2023/05/07 13:12:47;;;;;;;3.73;2.33;;;;;;;;;;13005626;19;20014;-67
2023/05/07 13:17:05;;;;;;;5.00;2.97;;;;;;;;;;13003524;19;20009;-67
2023/05/07 13:21:23;;;;;;;4.55;2.47;;;;;;;;;;13004948;19;20354;-67
2023/05/07 13:25:40;;;;;;;6.00;4.53;;;;;;;;;;13004752;19;20031;-68
2023/05/07 13:29:58;;;;;;;3.70;2.60;;;;;;;;;;13003952;19;20082;-66
2023/05/07 13:34:16;;;;;;;7.75;3.33;;;;;;;;;;13003538;19;20457;-66
2023/05/07 13:38:34;;;;;;;10.27;6.18;;;;;;;;;;13003178;19;20011;-66
2023/05/07 13:42:53;;;;;;;3.38;2.20;;;;;;;;;;13003346;19;20007;-68
2023/05/07 13:47:11;;;;;;;8.68;4.00;;;;;;;;;;13002604;19;20002;-67
2023/05/07 13:51:29;;;;;;;2.90;1.60;;;;;;;;;;13002832;19;20006;-67
2023/05/07 13:55:47;;;;;;;6.30;3.28;;;;;;;;;;13001759;19;20010;-69
2023/05/07 14:00:06;;;;;;;4.93;2.45;;;;;;;;;;13002527;19;20014;-68
2023/05/07 14:04:23;;;;;;;3.47;2.13;;;;;;;;;;13000440;19;20374;-68
2023/05/07 14:08:41;;;;;;;3.00;2.10;;;;;;;;;;13002286;19;20017;-68
2023/05/07 14:12:59;;;;;;;4.10;2.25;;;;;;;;;;13002483;19;20018;-68
2023/05/07 14:17:22;;;;;;;8.13;4.68;;;;;;;;;;13000288;19;20061;-67
2023/05/07 14:21:41;;;;;;;6.95;3.20;;;;;;;;;;12999807;19;20014;-67
2023/05/07 14:25:59;;;;;;;4.88;3.42;;;;;;;;;;13000642;19;20476;-67
2023/05/07 14:30:17;;;;;;;4.15;2.58;;;;;;;;;;13000745;19;20384;-67
2023/05/07 14:34:34;;;;;;;4.50;2.70;;;;;;;;;;13000859;19;20095;-67
2023/05/07 14:38:58;;;;;;;7.03;3.72;;;;;;;;;;13000308;19;20014;-67
2023/05/07 14:43:16;;;;;;;7.15;3.80;;;;;;;;;;13000175;19;20018;-67
2023/05/07 14:47:34;;;;;;;12.95;5.60;;;;;;;;;;13000736;19;20033;-68
2023/05/07 14:51:52;;;;;;;30.98;18.90;;;;;;;;;;13000159;19;20446;-67
2023/05/07 14:56:10;;;;;;;7.32;4.47;;;;;;;;;;12998314;19;20038;-68
2023/05/07 15:00:28;;;;;;;11.73;4.80;;;;;;;;;;12999701;19;20445;-68
2023/05/07 15:04:46;;;;;;;15.82;8.20;;;;;;;;;;12999117;19;20007;-67
2023/05/07 15:09:04;;;;;;;6.22;3.67;;;;;;;;;;13008224;19;20006;-67
2023/05/07 15:13:22;;;;;;;8.35;3.90;;;;;;;;;;13011313;19;20474;-67
2023/05/07 15:17:40;;;;;;;6.78;4.30;;;;;;;;;;13010736;19;20015;-67
2023/05/07 15:22:02;;;;;;;4.53;2.67;;;;;;;;;;13011081;19;20452;-66
2023/05/07 15:26:20;;;;;;;5.88;3.67;;;;;;;;;;13010856;19;20025;-66
2023/05/07 15:30:38;;;;;;;4.68;3.40;;;;;;;;;;13011379;19;20017;-69
2023/05/07 15:34:56;;;;;;;6.28;4.20;;;;;;;;;;13010512;19;20010;-67
2023/05/07 15:39:13;;;;;;;44.80;12.60;;;;;;;;;;13009051;19;20030;-68
2023/05/07 15:43:31;;;;;;;62.28;17.00;;;;;;;;;;13009604;19;20023;-66
2023/05/07 15:47:49;;;;;;;53.92;21.70;;;;;;;;;;13009943;19;20014;-67
2023/05/07 15:52:09;;;;;;;17.77;8.10;;;;;;;;;;13008700;19;20014;-67
2023/05/07 15:56:28;;;;;;;15.05;8.63;;;;;;;;;;13009085;19;20018;-67
2023/05/07 16:00:46;;;;;;;34.30;17.98;;;;;;;;;;13009205;19;20020;-66
2023/05/07 16:05:09;;;;;;;34.40;20.80;;;;;;;;;;13008354;19;20010;-67
2023/05/07 16:09:28;;;;;;;16.83;11.52;;;;;;;;;;13008987;19;20034;-67
2023/05/07 16:13:45;;;;;;;18.40;10.18;;;;;;;;;;13008969;19;20002;-67
2023/05/07 16:18:03;;;;;;;8.15;4.55;;;;;;;;;;13004712;19;20127;-67
2023/05/07 16:22:23;;;;;;;19.25;8.95;;;;;;;;;;13008239;19;20042;-66
2023/05/07 16:26:42;;;;;;;13.43;6.47;;;;;;;;;;13005939;19;20014;-66
2023/05/07 16:30:59;;;;;;;12.60;8.45;;;;;;;;;;13007349;19;20014;-67
2023/05/07 16:35:17;;;;;;;7.32;4.57;;;;;;;;;;13007346;19;20003;-67
2023/05/07 16:39:35;;;;;;;12.98;7.28;;;;;;;;;;13006683;19;20030;-66
2023/05/07 16:43:53;;;;;;;12.18;4.88;;;;;;;;;;13006358;19;20018;-67
2023/05/07 16:48:11;;;;;;;7.50;4.13;;;;;;;;;;13005722;19;20014;-66
2023/05/07 16:52:29;;;;;;;13.27;6.82;;;;;;;;;;13006168;19;20346;-67
2023/05/07 16:56:47;;;;;;;8.65;4.40;;;;;;;;;;13005931;19;20354;-67
2023/05/07 17:01:04;;;;;;;10.40;4.50;;;;;;;;;;13006135;19;20002;-68
2023/05/07 17:05:22;;;;;;;9.85;6.00;;;;;;;;;;13005672;19;20042;-67
2023/05/07 17:09:40;;;;;;;16.77;9.23;;;;;;;;;;13006072;19;20014;-67
2023/05/07 17:13:58;;;;;;;18.95;11.23;;;;;;;;;;13005023;19;20466;-66
2023/05/07 17:18:16;;;;;;;13.98;7.40;;;;;;;;;;13004208;19;20002;-67
2023/05/07 17:22:34;;;;;;;29.60;13.15;;;;;;;;;;13004714;19;20353;-67
2023/05/07 17:26:51;;;;;;;17.90;7.20;;;;;;;;;;13004476;19;20018;-67
2023/05/07 17:31:10;;;;;;;9.38;5.10;;;;;;;;;;13002391;19;20006;-68
2023/05/07 17:35:30;;;;;;;;;;;;;;;;;;13005441;19;20010;-67
2023/05/07 17:39:48;;;;;;;66.05;19.23;;;;;;;;;;13003281;19;20340;-68
2023/05/07 17:44:05;;;;;;;46.83;17.67;;;;;;;;;;13001855;19;20011;-69
2023/05/07 17:48:25;;;;;;;30.75;11.57;;;;;;;;;;13003611;19;20460;-67
2023/05/07 17:52:42;;;;;;;62.42;21.25;;;;;;;;;;13003249;19;20006;-68
2023/05/07 17:57:01;;;;;;;16.80;8.10;;;;;;;;;;13002811;19;20010;-68
2023/05/07 18:01:19;;;;;;;23.50;10.45;;;;;;;;;;13002370;19;20127;-67
2023/05/07 18:05:38;;;;;;;20.33;9.73;;;;;;;;;;13002171;19;20015;-66
2023/05/07 18:09:56;;;;;;;13.63;7.82;;;;;;;;;;13001867;19;20341;-66
2023/05/07 18:14:14;;;;;;;20.98;9.73;;;;;;;;;;13001738;19;20006;-68
2023/05/07 18:18:34;;;;;;;14.40;7.45;;;;;;;;;;13001367;19;20051;-66
2023/05/07 18:22:51;;;;;;;9.32;4.35;;;;;;;;;;12999874;19;20013;-66
2023/05/07 18:27:09;;;;;;;13.57;6.53;;;;;;;;;;12977941;19;20011;-66
2023/05/07 18:31:27;;;;;;;13.15;5.45;;;;;;;;;;13001316;19;20011;-67
2023/05/07 18:35:44;;;;;;;9.27;4.68;;;;;;;;;;13001106;19;20319;-66
2023/05/07 18:40:21;;;;;;;8.63;3.97;;;;;;;;;;12999686;19;20006;-67
2023/05/07 18:44:39;;;;;;;10.60;5.05;;;;;;;;;;13011255;19;20006;-66
2023/05/07 18:48:57;;;;;;;9.27;4.63;;;;;;;;;;13013326;19;20018;-68
2023/05/07 18:53:14;;;;;;;6.85;3.67;;;;;;;;;;13012490;19;20011;-68
2023/05/07 18:57:33;;;;;;;7.18;4.20;;;;;;;;;;13012083;19;20022;-67
2023/05/07 19:01:50;;;;;;;;;;;;;;;;;;13012982;19;20487;-66
2023/05/07 19:06:09;;;;;;;;;;;;;;;;;;13011571;19;19918;-66
2023/05/07 19:10:26;;;;;;;10.20;5.18;;;;;;;;;;13009317;19;19949;-66
2023/05/07 19:14:45;;;;;;;8.77;5.15;;;;;;;;;;13011398;19;20323;-67
2023/05/07 19:19:06;;;;;;;11.57;6.25;;;;;;;;;;13009014;19;20002;-66
2023/05/07 19:23:24;;;;;;;9.38;4.22;;;;;;;;;;13011409;19;20521;-67
2023/05/07 19:27:41;;;;;;;6.65;3.53;;;;;;;;;;13011372;19;20010;-66
2023/05/07 19:32:01;;;;;;;9.60;5.28;;;;;;;;;;13010409;19;20033;-67
2023/05/07 19:36:19;;;;;;;5.15;2.63;;;;;;;;;;13010597;19;20013;-67
2023/05/07 19:40:37;;;;;;;6.30;2.92;;;;;;;;;;13008084;19;20018;-66
2023/05/07 19:44:54;;;;;;;7.55;4.15;;;;;;;;;;13008224;19;20014;-67
2023/05/07 19:49:12;;;;;;;5.90;3.22;;;;;;;;;;13009287;19;20470;-68
2023/05/07 19:53:31;;;;;;;7.00;3.05;;;;;;;;;;12986496;19;20078;-65
2023/05/07 19:57:49;;;;;;;9.32;5.32;;;;;;;;;;13008121;19;20010;-68
2023/05/07 20:02:07;;;;;;;14.40;7.38;;;;;;;;;;13008163;19;20009;-66
2023/05/07 20:06:25;;;;;;;10.70;5.30;;;;;;;;;;13009356;19;20029;-66
2023/05/07 20:10:44;;;;;;;8.70;4.70;;;;;;;;;;13008782;19;20011;-68
2023/05/07 20:15:06;;;;;;;5.63;3.53;;;;;;;;;;13007828;19;20021;-67
2023/05/07 20:19:24;;;;;;;7.20;4.55;;;;;;;;;;12986656;19;20037;-68
2023/05/07 20:23:42;;;;;;;8.25;4.70;;;;;;;;;;13006804;19;20012;-68
2023/05/07 20:28:01;;;;;;;12.23;4.65;;;;;;;;;;13007702;19;20130;-67
2023/05/07 20:32:18;;;;;;;10.35;5.35;;;;;;;;;;13007332;19;20322;-66
2023/05/07 20:36:36;;;;;;;6.22;3.92;;;;;;;;;;13007141;19;20022;-66
2023/05/07 20:40:54;;;;;;;4.60;3.03;;;;;;;;;;13005172;19;20024;-66
2023/05/07 20:45:12;;;;;;;;;;;;;;;;;;13006154;19;20107;-66
2023/05/07 20:49:30;;;;;;;5.90;4.00;;;;;;;;;;13006710;19;19915;-68
2023/05/07 20:53:47;;;;;;;6.57;4.17;;;;;;;;;;12981753;19;20094;-67
2023/05/07 20:58:05;;;;;;;6.05;3.50;;;;;;;;;;13006497;19;20082;-66
2023/05/07 21:02:23;;;;;;;7.35;3.30;;;;;;;;;;13006381;19;20488;-66
2023/05/07 21:06:42;;;;;;;14.95;6.22;;;;;;;;;;13004740;19;20006;-67
2023/05/07 21:11:00;;;;;;;7.20;4.03;;;;;;;;;;13003979;19;20010;-68
2023/05/07 21:15:17;;;;;;;5.43;2.78;;;;;;;;;;13005388;19;20007;-67
2023/05/07 21:19:35;;;;;;;4.88;2.90;;;;;;;;;;13003913;19;20041;-67
2023/05/07 21:23:53;;;;;;;4.72;3.33;;;;;;;;;;13004863;19;20018;-67
2023/05/07 21:28:11;;;;;;;5.55;2.70;;;;;;;;;;13003487;19;20029;-67
2023/05/07 21:32:29;;;;;;;6.30;2.90;;;;;;;;;;13004361;19;20006;-67
2023/05/07 21:36:47;;;;;;;4.90;2.53;;;;;;;;;;13004067;19;20013;-67
2023/05/07 21:41:06;;;;;;;4.57;2.30;;;;;;;;;;13001197;19;20109;-69
2023/05/07 21:45:24;;;;;;;3.33;2.17;;;;;;;;;;13004333;19;20022;-69
2023/05/07 21:49:41;;;;;;;3.72;2.28;;;;;;;;;;13003636;19;20011;-67
2023/05/07 21:53:59;;;;;;;5.18;2.53;;;;;;;;;;13003482;19;20039;-68
2023/05/07 21:58:17;;;;;;;4.32;2.17;;;;;;;;;;13003720;19;20007;-67
2023/05/07 22:02:35;;;;;;;3.08;2.17;;;;;;;;;;13003338;19;20352;-67
2023/05/07 22:06:54;;;;;;;3.63;2.17;;;;;;;;;;13002346;19;20350;-66
2023/05/07 22:11:12;;;;;;;4.05;2.30;;;;;;;;;;13002041;19;20014;-68
2023/05/07 22:15:30;;;;;;;2.63;1.80;;;;;;;;;;12977911;19;20038;-67
2023/05/07 22:19:51;;;;;;;2.25;1.58;;;;;;;;;;13002463;19;20013;-66
2023/05/07 22:24:09;;;;;;;3.33;1.90;;;;;;;;;;13000965;19;20465;-66
2023/05/07 22:28:27;;;;;;;2.45;1.70;;;;;;;;;;13001777;19;20037;-67
2023/05/07 22:32:45;;;;;;;3.15;1.55;;;;;;;;;;13001346;19;20358;-68
2023/05/07 22:37:03;;;;;;;4.25;1.70;;;;;;;;;;12999869;19;20342;-66
2023/05/07 22:41:21;;;;;;;3.55;1.77;;;;;;;;;;12999975;19;20022;-67
2023/05/07 22:45:39;;;;;;;1.98;1.38;;;;;;;;;;13000508;19;20007;-68
2023/05/07 22:49:57;;;;;;;3.35;1.50;;;;;;;;;;13000285;19;20010;-66
2023/05/07 22:54:14;;;;;;;3.15;1.75;;;;;;;;;;12999852;19;20041;-67
2023/05/07 22:58:33;;;;;;;2.22;1.35;;;;;;;;;;12999444;19;20013;-67
2023/05/07 23:02:50;;;;;;;2.55;1.83;;;;;;;;;;12999978;19;20017;-67
2023/05/07 23:07:09;;;;;;;2.80;1.85;;;;;;;;;;12976535;19;20070;-66
2023/05/07 23:11:30;;;;;;;2.03;1.52;;;;;;;;;;12999719;19;20007;-68
2023/05/07 23:15:49;;;;;;;3.22;1.70;;;;;;;;;;12999571;19;20006;-67
2023/05/07 23:20:07;;;;;;;2.17;1.45;;;;;;;;;;12997287;19;20011;-66
2023/05/07 23:24:25;;;;;;;;;;;;;;;;;;12998422;19;20006;-66
2023/05/07 23:28:43;;;;;;;2.33;0.82;;;;;;;;;;13003736;19;19911;-67
2023/05/07 23:33:01;;;;;;;2.03;1.45;;;;;;;;;;13010854;19;20014;-68
2023/05/07 23:37:19;;;;;;;;;;;;;;;;;;13011150;19;20006;-68
2023/05/07 23:41:36;;;;;;;2.88;1.48;;;;;;;;;;13010038;19;19921;-66
2023/05/07 23:45:54;;;;;;;2.97;1.70;;;;;;;;;;13010091;19;20003;-66
2023/05/07 23:50:12;;;;;;;1.67;1.20;;;;;;;;;;13009654;19;20371;-66
2023/05/07 23:54:33;;;;;;;3.42;1.85;;;;;;;;;;13010127;19;20030;-66
2023/05/07 23:58:50;;;;;;;4.38;1.48;;;;;;;;;;13008788;19;20007;-67
